Time;durP1;ratioP1;P1;durP2;ratioP2;P2;SDS_P1;SDS_P2;PMS_P1;PMS_P2;Temp;Humidity;BMP_temperature;BMP_pressure;BME280_temperature;BME280_humidity;BME280_pressure;Samples;Min_cycle;Max_cycle;Signal;HPM_P1;HPM_P2
2022/08/03 00:01:28;;;;;;;4.50;4.23;;;;;;;17.34;100.00;66014.13;5113163;28;20189;-75
2022/08/03 00:03:55;;;;;;;3.87;3.87;;;;;;;17.34;100.00;66014.13;5116405;28;20593;-75
2022/08/03 00:06:21;;;;;;;4.07;3.97;;;;;;;17.31;100.00;66010.78;5116787;28;20254;-75
2022/08/03 00:08:48;;;;;;;4.37;4.37;;;;;;;17.32;100.00;66001.41;5117010;28;20241;-75
2022/08/03 00:11:14;;;;;;;4.27;4.23;;;;;;;17.31;100.00;66010.22;5117025;28;20214;-75
2022/08/03 00:13:41;;;;;;;4.23;4.23;;;;;;;17.32;100.00;66003.47;5116741;28;20582;-75
2022/08/03 00:16:08;;;;;;;4.07;3.97;;;;;;;;;;5116584;28;20209;-75
2022/08/03 00:18:34;;;;;;;4.20;4.10;;;;;;;17.28;100.00;66007.44;5116604;28;20211;-75
2022/08/03 00:21:01;;;;;;;4.20;4.10;;;;;;;17.21;100.00;65999.06;5116583;28;20185;-75
2022/08/03 00:23:27;;;;;;;4.20;4.20;;;;;;;17.18;100.00;65988.41;5116533;28;20223;-75
2022/08/03 00:26:13;;;;;;;4.27;4.17;;;;;;;;;;5116456;28;20217;-76
2022/08/03 00:28:40;;;;;;;4.03;4.03;;;;;;;;;;5116294;28;20631;-76
2022/08/03 00:31:07;;;;;;;3.57;3.47;;;;;;;17.14;100.00;65988.63;5116437;28;20201;-74
2022/08/03 00:33:38;;;;;;;5.33;5.17;;;;;;;;;;5116620;28;20205;-74
2022/08/03 00:36:25;;;;;;;4.43;4.33;;;;;;;;;;5116451;28;20209;-75
2022/08/03 00:38:51;;;;;;;4.33;3.97;;;;;;;16.89;100.00;65961.91;5116211;28;20212;-75
2022/08/03 00:41:18;;;;;;;4.93;3.97;;;;;;;;;;5116197;28;20720;-75
2022/08/03 00:43:46;;;;;;;4.50;4.10;;;;;;;16.72;100.00;65935.09;5116392;28;20216;-75
2022/08/03 00:46:12;;;;;;;3.67;3.67;;;;;;;16.65;100.00;65935.69;5116040;28;20763;-74
2022/08/03 00:48:50;;;;;;;4.13;4.13;;;;;;;16.62;100.00;65934.97;5115970;28;20198;-74
2022/08/03 00:51:17;;;;;;;4.07;3.97;;;;;;;16.60;100.00;65932.19;5116001;28;20234;-74
2022/08/03 00:53:44;;;;;;;3.87;3.77;;;;;;;16.62;100.00;65931.78;5115956;28;20196;-74
2022/08/03 00:56:15;;;;;;;3.97;3.63;;;;;;;16.62;100.00;65931.78;5115894;28;20222;-75
2022/08/03 00:58:45;;;;;;;4.33;4.33;;;;;;;16.63;100.00;65935.50;5115891;28;20224;-75
2022/08/03 01:01:12;;;;;;;3.87;3.67;;;;;;;;;;5116127;28;20208;-75
2022/08/03 01:03:39;;;;;;;4.00;4.00;;;;;;;16.66;100.00;65939.41;5115992;28;20711;-75
2022/08/03 01:06:24;;;;;;;4.43;4.13;;;;;;;16.66;100.00;65947.28;5115625;28;20237;-74
2022/08/03 01:09:02;;;;;;;4.17;4.13;;;;;;;16.58;100.00;65935.75;5115612;28;20193;-74
2022/08/03 01:11:34;;;;;;;4.20;4.10;;;;;;;;;;5116194;28;20177;-74
2022/08/03 01:14:28;;;;;;;5.33;5.07;;;;;;;;;;5115035;28;20180;-74
2022/08/03 01:17:00;;;;;;;4.23;4.23;;;;;;;16.36;100.00;65905.97;5115804;28;20199;-75
2022/08/03 01:19:32;;;;;;;4.70;4.60;;;;;;;16.35;100.00;65907.50;5115440;28;20628;-75
2022/08/03 01:22:36;;;;;;;4.47;4.27;;;;;;;16.38;100.00;65906.16;5115684;28;20624;-75
2022/08/03 01:25:18;;;;;;;5.10;5.00;;;;;;;16.40;100.00;65910.44;5115544;28;20691;-75
2022/08/03 01:27:44;;;;;;;4.37;4.27;;;;;;;;;;5115316;28;20212;-75
2022/08/03 01:30:11;;;;;;;4.37;4.27;;;;;;;16.22;100.00;65888.91;5115240;28;20610;-75
2022/08/03 01:33:08;;;;;;;4.47;4.33;;;;;;;16.17;100.00;65885.38;5115483;28;20177;-75
2022/08/03 01:35:43;;;;;;;4.60;4.47;;;;;;;16.13;100.00;65878.84;5115092;28;20243;-74
2022/08/03 01:38:14;;;;;;;4.83;4.67;;;;;;;;;;5115707;28;20520;-75
2022/08/03 01:40:43;;;;;;;4.90;4.80;;;;;;;16.19;100.00;65890.78;5115333;28;20588;-75
2022/08/03 01:43:16;;;;;;;5.00;4.90;;;;;;;16.16;100.00;65886.88;5114977;28;20188;-75
2022/08/03 01:46:06;;;;;;;5.20;5.20;;;;;;;16.15;100.00;65883.72;5114985;28;20729;-74
2022/08/03 01:48:35;;;;;;;5.20;5.10;;;;;;;16.16;100.00;65884.28;5114747;28;20231;-76
2022/08/03 01:51:02;;;;;;;5.10;4.90;;;;;;;16.14;100.00;65882.59;5115094;28;20181;-76
2022/08/03 01:53:32;;;;;;;5.43;5.13;;;;;;;16.14;100.00;65884.66;5114735;28;20213;-75
2022/08/03 01:56:01;;;;;;;4.93;4.63;;;;;;;16.10;100.00;65877.59;5114658;28;20201;-75
2022/08/03 01:58:28;;;;;;;6.23;5.60;;;;;;;;;;5114930;28;20212;-76
2022/08/03 02:00:59;;;;;;;5.77;4.87;;;;;;;16.08;100.00;65875.91;5115204;28;20686;-75
2022/08/03 02:03:28;;;;;;;5.23;5.03;;;;;;;16.09;100.00;65874.41;5115038;28;20508;-76
2022/08/03 02:05:57;;;;;;;5.60;5.30;;;;;;;16.08;100.00;65873.31;5114439;28;20209;-75
2022/08/03 02:08:44;;;;;;;5.97;5.67;;;;;;;;;;5114981;28;20205;-75
2022/08/03 02:11:11;;;;;;;4.50;4.43;;;;;;;16.00;100.00;65866.44;5114755;28;20611;-75
2022/08/03 02:13:39;;;;;;;4.37;4.27;;;;;;;15.98;100.00;65870.00;5114403;28;20181;-75
2022/08/03 02:16:06;;;;;;;4.60;4.40;;;;;;;15.97;100.00;65863.66;5114265;28;20205;-74
2022/08/03 02:18:33;;;;;;;5.17;4.80;;;;;;;;;;5114307;28;20178;-74
2022/08/03 02:21:02;;;;;;;4.90;4.80;;;;;;;15.96;100.00;65854.69;5114828;28;20234;-74
2022/08/03 02:23:36;;;;;;;4.80;4.50;;;;;;;;;;5114513;28;20181;-75
2022/08/03 02:26:06;;;;;;;4.87;4.77;;;;;;;15.94;100.00;65857.72;5113339;28;20571;-74
2022/08/03 02:28:39;;;;;;;4.43;4.33;;;;;;;15.95;100.00;65861.44;5113922;28;20239;-74
2022/08/03 02:31:15;;;;;;;4.30;4.30;;;;;;;15.95;100.00;65862.00;5114396;28;20174;-74
2022/08/03 02:33:47;;;;;;;5.13;4.90;;;;;;;15.92;100.00;65858.09;5114110;28;20180;-74
2022/08/03 02:36:18;;;;;;;4.33;4.27;;;;;;;15.91;100.00;65862.22;5114267;28;20697;-74
2022/08/03 02:38:48;;;;;;;5.00;4.80;;;;;;;;;;5114300;28;20170;-74
2022/08/03 02:41:20;;;;;;;5.10;5.00;;;;;;;15.81;100.00;65848.47;5114239;28;20217;-74
2022/08/03 02:43:48;;;;;;;4.33;4.33;;;;;;;;;;5113946;28;20212;-74
2022/08/03 02:46:33;;;;;;;4.70;4.40;;;;;;;;;;5113791;28;20208;-74
2022/08/03 02:49:02;;;;;;;4.70;4.60;;;;;;;15.62;100.00;65822.63;5113810;28;20266;-74
2022/08/03 02:51:50;;;;;;;5.80;5.43;;;;;;;;;;5113795;28;20189;-74
2022/08/03 02:54:18;;;;;;;4.30;4.30;;;;;;;15.59;100.00;65821.88;5113976;28;20185;-74
2022/08/03 02:56:46;;;;;;;5.30;5.00;;;;;;;15.61;100.00;65829.34;5114312;28;20542;-74
2022/08/03 02:59:16;;;;;;;4.50;4.30;;;;;;;15.59;100.00;65819.28;5113983;28;20219;-74
2022/08/03 03:01:43;;;;;;;5.70;5.30;;;;;;;;;;5114568;28;20218;-74
2022/08/03 03:04:10;;;;;;;5.50;5.30;;;;;;;;;;5113703;28;20231;-74
2022/08/03 03:06:39;;;;;;;4.33;4.23;;;;;;;15.58;100.00;65821.34;5113901;28;20193;-74
2022/08/03 03:09:07;;;;;;;4.30;4.30;;;;;;;15.58;100.00;65818.72;5113839;28;20200;-74
2022/08/03 03:11:34;;;;;;;5.20;4.90;;;;;;;;;;5113614;28;20220;-74
2022/08/03 03:14:01;;;;;;;4.90;4.80;;;;;;;15.57;100.00;65812.38;5113555;28;20230;-74
2022/08/03 03:16:29;;;;;;;5.10;4.70;;;;;;;;;;5113513;28;20741;-74
2022/08/03 03:18:56;;;;;;;7.00;4.40;;;;;;;15.57;100.00;65825.47;5113928;28;20612;-75
2022/08/03 03:21:25;;;;;;;4.47;4.37;;;;;;;15.53;100.00;65815.19;5113788;28;20659;-75
2022/08/03 03:23:53;;;;;;;4.93;4.93;;;;;;;15.50;100.00;65804.00;5113520;28;20189;-75
2022/08/03 03:26:19;;;;;;;4.87;4.77;;;;;;;15.51;100.00;65816.16;5113434;28;20266;-74
2022/08/03 03:28:46;;;;;;;4.60;4.50;;;;;;;15.49;100.00;65808.69;5113311;28;20232;-74
2022/08/03 03:31:12;;;;;;;4.93;4.63;;;;;;;;;;5113415;28;20189;-74
2022/08/03 03:33:39;;;;;;;4.80;4.47;;;;;;;;;;5113402;28;20185;-75
2022/08/03 03:36:06;;;;;;;5.03;4.93;;;;;;;15.48;100.00;65802.34;5113879;28;20239;-74
2022/08/03 03:38:33;;;;;;;5.67;5.37;;;;;;;15.45;100.00;65796.38;5116258;28;20209;-74
2022/08/03 03:41:00;;;;;;;5.10;4.67;;;;;;;15.47;100.00;65808.53;5117382;28;20594;-75
2022/08/03 03:43:28;;;;;;;7.63;5.30;;;;;;;15.43;100.00;65802.03;5117326;28;20224;-75
2022/08/03 03:45:56;;;;;;;4.77;4.57;;;;;;;15.33;100.00;65793.50;5117341;28;20205;-74
2022/08/03 03:48:24;;;;;;;4.47;4.20;;;;;;;15.27;100.00;65784.75;5117128;28;20230;-75
2022/08/03 03:50:50;;;;;;;5.07;4.97;;;;;;;15.27;100.00;65784.75;5117205;28;20209;-75
2022/08/03 03:53:17;;;;;;;6.13;5.70;;;;;;;15.31;100.00;65791.81;5117113;28;20189;-75
2022/08/03 03:55:43;;;;;;;12.97;4.67;;;;;;;;;;5117134;28;20269;-75
2022/08/03 03:58:29;;;;;;;5.27;4.87;;;;;;;15.31;100.00;65793.88;5117633;28;20169;-75
2022/08/03 04:00:55;;;;;;;4.60;4.37;;;;;;;15.26;100.00;65785.69;5116987;28;20600;-75
2022/08/03 04:03:22;;;;;;;4.97;4.77;;;;;;;15.24;100.00;65781.41;5116938;28;20659;-75
2022/08/03 04:11:26;;;;;;;4.70;4.60;;;;;;;15.24;100.00;65776.19;5116820;28;20173;-74
2022/08/03 04:14:03;;;;;;;4.37;4.17;;;;;;;;;;5116731;28;20177;-74
2022/08/03 04:16:32;;;;;;;5.17;4.87;;;;;;;;;;5116681;28;20744;-74
2022/08/03 04:19:04;;;;;;;5.63;5.33;;;;;;;15.12;100.00;65768.63;5116640;28;20205;-74
2022/08/03 04:21:32;;;;;;;5.57;5.17;;;;;;;15.06;100.00;65761.38;5116897;28;20228;-74
2022/08/03 04:24:02;;;;;;;6.70;5.37;;;;;;;15.05;100.00;65765.50;5116531;28;20551;-74
2022/08/03 04:26:32;;;;;;;5.77;5.27;;;;;;;;;;5116532;28;20232;-74
2022/08/03 04:29:00;;;;;;;5.50;5.30;;;;;;;15.08;100.00;65766.22;5116691;28;20194;-74
2022/08/03 04:31:28;;;;;;;4.80;4.67;;;;;;;15.09;100.00;65767.34;5116465;28;20220;-74
2022/08/03 04:33:55;;;;;;;5.73;5.23;;;;;;;15.11;100.00;65759.66;5116326;28;20553;-74
2022/08/03 04:36:31;;;;;;;6.13;5.60;;;;;;;15.16;100.00;65771.97;5116267;28;20232;-74
2022/08/03 04:38:59;;;;;;;5.90;5.47;;;;;;;15.19;100.00;65785.75;5116576;28;20196;-74
2022/08/03 04:41:26;;;;;;;5.43;5.10;;;;;;;;;;5116227;28;20182;-74
2022/08/03 04:43:56;;;;;;;6.07;5.60;;;;;;;15.20;100.00;65776.97;5116465;28;20639;-74
2022/08/03 04:46:27;;;;;;;4.90;4.77;;;;;;;15.19;100.00;65780.53;5116074;28;20228;-74
2022/08/03 04:48:55;;;;;;;4.70;4.70;;;;;;;15.23;100.00;65780.31;5115440;28;20219;-76
2022/08/03 04:51:22;;;;;;;5.10;4.90;;;;;;;15.29;100.00;65781.22;5115640;28;20193;-75
2022/08/03 04:53:48;;;;;;;5.40;5.27;;;;;;;;;;5115943;28;20200;-75
2022/08/03 04:56:15;;;;;;;5.97;5.77;;;;;;;;;;5115879;28;20213;-74
2022/08/03 04:58:41;;;;;;;6.63;5.30;;;;;;;15.41;100.00;65802.41;5115877;28;20216;-75
2022/08/03 05:01:08;;;;;;;6.13;5.87;;;;;;;15.48;100.00;65807.00;5115793;28;20218;-75
2022/08/03 05:03:34;;;;;;;9.57;5.27;;;;;;;15.56;100.00;65819.09;5116281;28;20258;-75
2022/08/03 05:06:01;;;;;;;6.10;5.50;;;;;;;;;;5115727;28;20247;-74
2022/08/03 05:08:37;;;;;;;5.37;5.03;;;;;;;15.55;100.00;65820.59;5115634;28;20623;-75
2022/08/03 05:11:12;;;;;;;5.63;5.33;;;;;;;15.62;100.00;65823.19;5115975;28;20583;-75
2022/08/03 05:13:38;;;;;;;5.60;5.50;;;;;;;;;;5116104;28;20280;-75
2022/08/03 05:16:05;;;;;;;4.90;4.70;;;;;;;;;;5115430;28;20240;-75
2022/08/03 05:18:31;;;;;;;5.60;5.20;;;;;;;15.90;100.00;65861.09;5115981;28;20242;-75
2022/08/03 05:20:57;;;;;;;5.23;5.03;;;;;;;;;;5115423;28;20212;-75
2022/08/03 05:23:24;;;;;;;6.53;6.03;;;;;;;;;;5115390;28;20190;-75
2022/08/03 05:25:50;;;;;;;5.57;5.33;;;;;;;16.16;100.00;65889.50;5115495;28;20754;-74
2022/08/03 05:28:17;;;;;;;6.50;6.10;;;;;;;16.30;100.00;65896.69;5115242;28;20193;-75
2022/08/03 05:30:43;;;;;;;6.10;5.57;;;;;;;;;;5115744;28;20251;-75
2022/08/03 05:33:10;;;;;;;9.97;6.03;;;;;;;16.47;100.00;65915.63;5115159;28;20181;-75
2022/08/03 05:35:38;;;;;;;5.83;5.53;;;;;;;16.56;100.00;65925.09;5115373;28;20235;-74
2022/08/03 05:38:24;;;;;;;7.20;6.40;;;;;;;;;;5115133;28;20256;-75
2022/08/03 05:41:00;;;;;;;6.53;5.63;;;;;;;;;;5098799;28;20173;-75
2022/08/03 05:43:46;;;;;;;6.20;6.07;;;;;;;;;;5115588;28;20260;-76
2022/08/03 05:46:14;;;;;;;14.67;6.60;;;;;;;17.07;100.00;65981.38;5114807;28;20205;-75
2022/08/03 05:48:40;;;;;;;6.07;5.60;;;;;;;;;;5114824;28;20189;-75
2022/08/03 05:51:09;;;;;;;10.33;4.80;;;;;;;;;;5114799;28;20209;-76
2022/08/03 05:53:36;;;;;;;5.90;5.33;;;;;;;;;;5114769;28;20562;-76
2022/08/03 05:56:03;;;;;;;5.00;4.60;;;;;;;17.53;100.00;66034.19;5114986;28;20220;-75
2022/08/03 05:58:41;;;;;;;4.20;4.10;;;;;;;17.71;100.00;66053.72;5114901;28;20161;-75
2022/08/03 06:01:07;;;;;;;5.47;5.10;;;;;;;17.86;100.00;66063.16;5114539;28;20189;-75
2022/08/03 06:03:33;;;;;;;4.77;4.20;;;;;;;18.01;100.00;66078.78;5114530;28;20193;-75
2022/08/03 06:06:00;;;;;;;4.47;4.37;;;;;;;;;;5114472;28;20209;-75
2022/08/03 06:08:26;;;;;;;5.03;4.63;;;;;;;;;;5114471;28;20189;-75
2022/08/03 06:10:52;;;;;;;7.10;4.20;;;;;;;;;;5114638;28;20233;-75
2022/08/03 06:13:19;;;;;;;4.37;4.17;;;;;;;18.58;100.00;66149.16;5114683;28;20663;-75
2022/08/03 06:15:45;;;;;;;4.67;4.30;;;;;;;;;;5114518;28;20232;-75
2022/08/03 06:18:12;;;;;;;3.77;3.60;;;;;;;18.77;100.00;66167.19;5114336;28;20268;-75
2022/08/03 06:20:38;;;;;;;3.50;3.40;;;;;;;18.88;100.00;66179.47;5114219;28;20193;-75
2022/08/03 06:23:05;;;;;;;4.77;4.27;;;;;;;19.01;100.00;66188.19;5114269;28;20190;-75
2022/08/03 06:25:32;;;;;;;3.53;3.43;;;;;;;19.11;100.00;66199.88;5114295;28;20765;-75
2022/08/03 06:27:59;;;;;;;4.50;4.20;;;;;;;19.23;100.00;66218.00;5113993;28;20209;-75
2022/08/03 06:30:25;;;;;;;3.53;3.33;;;;;;;;;;5114022;28;20725;-75
2022/08/03 06:32:52;;;;;;;5.40;4.20;;;;;;;19.69;99.42;66268.84;5114243;28;20181;-75
2022/08/03 06:35:18;;;;;;;4.87;4.43;;;;;;;;;;5114106;28;20197;-75
2022/08/03 06:37:46;;;;;;;5.10;4.23;;;;;;;;;;5113913;28;20586;-75
2022/08/03 06:40:15;;;;;;;3.53;3.43;;;;;;;19.93;98.16;66287.22;5114314;28;20260;-75
2022/08/03 06:42:48;;;;;;;3.30;3.30;;;;;;;;;;5114251;28;20185;-75
2022/08/03 06:45:15;;;;;;;3.13;2.87;;;;;;;20.21;96.49;66325.81;5113830;28;20229;-75
2022/08/03 06:47:42;;;;;;;3.60;3.43;;;;;;;20.34;95.68;66340.38;5114198;28;20192;-76
2022/08/03 06:50:10;;;;;;;3.53;3.23;;;;;;;;;;5114023;28;20229;-76
2022/08/03 06:52:43;;;;;;;3.63;3.40;;;;;;;;;;5114416;28;20205;-76
2022/08/03 06:55:10;;;;;;;7.40;3.43;;;;;;;20.78;93.16;66390.53;5113660;28;20296;-75
2022/08/03 06:57:36;;;;;;;5.13;3.57;;;;;;;;;;5113739;28;20194;-75
2022/08/03 07:00:03;;;;;;;5.97;3.50;;;;;;;;;;5113750;28;20547;-77
2022/08/03 07:02:38;;;;;;;2.97;2.87;;;;;;;21.14;89.89;66422.88;5114012;28;20260;-77
2022/08/03 07:05:05;;;;;;;4.20;3.43;;;;;;;21.24;89.26;66432.97;5113921;28;20232;-77
2022/08/03 07:07:32;;;;;;;7.30;2.70;;;;;;;21.36;88.29;66452.25;5113968;28;20216;-77
2022/08/03 07:09:58;;;;;;;4.37;3.33;;;;;;;21.36;88.25;66446.41;5113528;28;20225;-77
2022/08/03 07:12:28;;;;;;;2.90;2.70;;;;;;;21.38;88.72;66456.56;5114394;28;20189;-77
2022/08/03 07:14:56;;;;;;;3.27;2.97;;;;;;;21.60;88.16;66480.63;5117843;28;20201;-77
2022/08/03 07:17:27;;;;;;;18.33;3.43;;;;;;;;;;5118375;28;20181;-77
2022/08/03 07:19:54;;;;;;;2.90;2.73;;;;;;;21.71;87.56;66485.00;5118106;28;20277;-76
2022/08/03 07:22:20;;;;;;;3.77;2.97;;;;;;;21.76;86.79;66495.88;5117740;28;20226;-76
2022/08/03 07:24:46;;;;;;;8.87;2.47;;;;;;;21.81;86.97;66495.66;5114441;27;20278;-75
2022/08/03 07:27:14;;;;;;;2.63;2.47;;;;;;;;;;5131883;27;20234;-75
2022/08/03 07:29:41;;;;;;;3.07;2.70;;;;;;;21.82;87.23;66505.25;5111746;28;20634;-76
2022/08/03 07:32:09;;;;;;;2.93;2.60;;;;;;;21.89;87.78;66504.59;5115189;27;20250;-75
2022/08/03 07:34:36;;;;;;;2.60;2.50;;;;;;;22.02;86.44;66524.44;5110943;28;20232;-76
2022/08/03 07:37:02;;;;;;;2.80;2.60;;;;;;;22.08;85.91;66530.59;5117727;28;20219;-77
2022/08/03 07:39:29;;;;;;;3.00;2.80;;;;;;;22.13;86.31;66539.41;5115642;28;20213;-76
2022/08/03 07:41:55;;;;;;;4.03;2.10;;;;;;;22.21;86.24;66545.72;5112460;28;20193;-75
2022/08/03 07:44:22;;;;;;;1.60;1.60;;;;;;;;;;5116290;28;20224;-75
2022/08/03 07:46:49;;;;;;;1.83;1.73;;;;;;;22.44;84.39;66570.94;5125081;27;20189;-75
2022/08/03 07:49:17;;;;;;;1.73;1.73;;;;;;;;;;5116359;27;20189;-76
2022/08/03 07:51:43;;;;;;;1.65;1.55;;;;;;;22.59;84.00;66581.88;5125435;27;20553;-76
2022/08/03 07:54:10;;;;;;;2.17;2.13;;;;;;;22.65;82.25;66585.38;5133530;27;20674;-76
2022/08/03 07:56:36;;;;;;;3.42;2.03;;;;;;;;;;5137941;27;20235;-76
2022/08/03 07:59:02;;;;;;;4.47;2.30;;;;;;;22.93;81.87;66632.09;5133134;27;20200;-76
2022/08/03 08:01:31;;;;;;;4.25;1.95;;;;;;;23.05;81.08;66637.59;5135138;27;20213;-76
2022/08/03 08:03:58;;;;;;;1.80;1.70;;;;;;;;;;5137474;27;20199;-77
2022/08/03 08:06:24;;;;;;;19.90;2.00;;;;;;;;;;5137412;27;20296;-77
2022/08/03 08:08:52;;;;;;;2.20;2.20;;;;;;;23.06;80.52;66633.97;5132512;27;20236;-76
2022/08/03 08:11:21;;;;;;;4.78;1.48;;;;;;;23.17;78.81;66653.69;5128731;27;20229;-76
2022/08/03 08:13:47;;;;;;;2.00;1.90;;;;;;;;;;5114860;28;20193;-76
2022/08/03 08:16:13;;;;;;;1.73;1.40;;;;;;;23.31;77.47;66661.44;5116959;27;20216;-76
2022/08/03 08:18:40;;;;;;;2.70;1.48;;;;;;;23.35;77.23;66676.50;5124208;27;20237;-75
2022/08/03 08:21:06;;;;;;;2.33;2.17;;;;;;;;;;5124238;27;20181;-76
2022/08/03 08:23:33;;;;;;;4.18;2.17;;;;;;;;;;5120476;27;20201;-77
2022/08/03 08:26:09;;;;;;;3.25;2.38;;;;;;;23.47;79.14;66678.22;5114101;28;20205;-75
2022/08/03 08:28:35;;;;;;;2.70;2.22;;;;;;;;;;5114445;28;20254;-76
2022/08/03 08:31:02;;;;;;;1.88;1.88;;;;;;;23.61;77.51;66694.50;5115687;28;20232;-76
2022/08/03 08:33:28;;;;;;;3.05;2.13;;;;;;;;;;5123596;27;20190;-74
2022/08/03 08:36:14;;;;;;;1.85;1.85;;;;;;;;;;5102658;27;20754;-76
2022/08/03 08:38:43;;;;;;;2.28;1.90;;;;;;;23.81;76.22;66715.81;5120017;27;20188;-76
2022/08/03 08:41:10;;;;;;;2.58;1.50;;;;;;;23.84;76.01;66719.16;5127367;27;20241;-76
2022/08/03 08:43:37;;;;;;;5.45;1.95;;;;;;;23.88;75.88;66724.22;5124751;27;20212;-75
2022/08/03 08:46:06;;;;;;;1.50;1.50;;;;;;;23.75;75.48;66717.03;5114001;27;20236;-76
2022/08/03 08:48:39;;;;;;;4.78;1.67;;;;;;;23.89;76.06;66722.69;5114822;28;20600;-76
2022/08/03 08:51:07;;;;;;;1.55;1.55;;;;;;;23.91;74.92;66726.44;5116318;28;20693;-76
2022/08/03 08:53:37;;;;;;;6.78;1.63;;;;;;;24.00;73.66;66742.41;5116098;28;20216;-77
2022/08/03 08:56:04;;;;;;;3.80;2.00;;;;;;;24.15;74.33;66753.94;5116718;28;20240;-77
2022/08/03 08:58:37;;;;;;;1.70;1.70;;;;;;;24.31;73.80;66771.31;5116501;28;20604;-77
2022/08/03 09:01:04;;;;;;;2.30;2.10;;;;;;;24.14;73.00;66757.53;5117786;27;20181;-77
2022/08/03 09:03:34;;;;;;;10.15;2.10;;;;;;;;;;5132929;27;20184;-77
2022/08/03 09:06:01;;;;;;;2.15;2.10;;;;;;;;;;5126628;27;20634;-76
2022/08/03 09:08:28;;;;;;;2.00;1.90;;;;;;;;;;5130936;27;20196;-77
2022/08/03 09:10:55;;;;;;;2.00;1.88;;;;;;;24.37;73.34;66785.47;5103011;28;20209;-77
2022/08/03 09:13:21;;;;;;;2.05;1.95;;;;;;;24.38;72.89;66779.19;5128069;27;20188;-77
2022/08/03 09:15:48;;;;;;;1.40;1.40;;;;;;;;;;5136087;27;20209;-77
2022/08/03 09:18:30;;;;;;;3.40;1.73;;;;;;;;;;5136345;27;20180;-77
2022/08/03 09:21:16;;;;;;;1.70;1.70;;;;;;;24.81;69.64;66831.59;5122684;27;20694;-77
2022/08/03 09:24:00;;;;;;;2.00;2.00;;;;;;;;;;5112046;28;20282;-74
2022/08/03 09:26:33;;;;;;;2.40;1.90;;;;;;;25.01;68.67;66848.19;5114350;27;20270;-77
2022/08/03 09:29:02;;;;;;;2.15;2.08;;;;;;;;;;5124130;27;20213;-76
2022/08/03 09:31:37;;;;;;;5.25;2.05;;;;;;;;;;5125484;27;20204;-77
2022/08/03 09:34:09;;;;;;;1.90;1.80;;;;;;;25.35;67.69;66891.09;5119281;27;20193;-76
2022/08/03 09:36:46;;;;;;;4.43;1.80;;;;;;;25.29;67.75;66875.81;5134047;27;20217;-77
2022/08/03 09:39:15;;;;;;;10.45;1.88;;;;;;;25.30;69.42;66876.97;5136129;27;20195;-77
2022/08/03 09:42:07;;;;;;;2.97;1.70;;;;;;;25.42;68.06;66898.41;5128148;27;20185;-76
2022/08/03 09:44:41;;;;;;;2.35;2.25;;;;;;;25.32;66.42;66882.41;5119173;27;20236;-78
2022/08/03 09:47:11;;;;;;;5.20;1.90;;;;;;;;;;5107591;28;20218;-75
2022/08/03 09:49:42;;;;;;;4.15;2.17;;;;;;;25.29;66.57;66887.03;5106434;28;20181;-76
2022/08/03 09:52:17;;;;;;;2.90;2.33;;;;;;;;;;5110291;28;20646;-77
2022/08/03 09:55:11;;;;;;;1.90;1.75;;;;;;;25.47;65.56;66896.03;5110038;28;20204;-75
2022/08/03 09:58:05;;;;;;;2.00;1.90;;;;;;;25.57;67.20;66917.31;5111566;28;20195;-76
2022/08/03 10:00:51;;;;;;;3.92;1.55;;;;;;;;;;5102315;28;20185;-76
2022/08/03 10:03:17;;;;;;;1.55;1.45;;;;;;;;;;5114731;28;20195;-76
2022/08/03 10:05:44;;;;;;;4.43;1.65;;;;;;;;;;5096751;28;20756;-78
2022/08/03 10:08:14;;;;;;;1.63;1.63;;;;;;;;;;5114605;28;20654;-76
2022/08/03 10:10:43;;;;;;;2.33;2.22;;;;;;;25.81;62.91;66944.31;5096383;28;20248;-77
2022/08/03 10:13:12;;;;;;;1.92;1.92;;;;;;;;;;5114822;28;20184;-76
2022/08/03 10:15:38;;;;;;;2.38;2.05;;;;;;;;;;5114570;28;20258;-76
2022/08/03 10:18:25;;;;;;;1.80;1.80;;;;;;;26.00;62.54;66955.00;5099360;28;20197;-76
2022/08/03 10:20:57;;;;;;;3.83;2.20;;;;;;;25.91;63.10;66947.56;5114809;28;20234;-77
2022/08/03 10:23:24;;;;;;;9.30;2.30;;;;;;;;;;5115462;28;20578;-77
2022/08/03 10:25:56;;;;;;;2.42;2.33;;;;;;;25.99;63.48;66964.50;5114360;28;20691;-77
2022/08/03 10:28:23;;;;;;;3.67;2.03;;;;;;;;;;5113955;28;20193;-77
2022/08/03 10:30:51;;;;;;;6.10;2.20;;;;;;;;;;5114265;28;20536;-76
2022/08/03 10:33:22;;;;;;;2.33;2.17;;;;;;;26.21;61.52;66985.44;5114619;28;20667;-77
2022/08/03 10:36:11;;;;;;;4.95;1.48;;;;;;;26.18;61.19;66976.75;5114154;28;20553;-77
2022/08/03 10:38:48;;;;;;;4.53;1.95;;;;;;;26.23;62.00;66990.34;5113621;28;20532;-76
2022/08/03 10:41:16;;;;;;;12.82;2.25;;;;;;;26.54;60.62;67025.19;5132675;27;20188;-76
2022/08/03 10:43:48;;;;;;;3.63;2.00;;;;;;;;;;5133509;27;20223;-77
2022/08/03 10:46:17;;;;;;;4.88;2.35;;;;;;;26.43;61.41;67004.84;5130050;27;20244;-76
2022/08/03 10:48:44;;;;;;;4.10;1.95;;;;;;;;;;5112811;27;20215;-77
2022/08/03 10:51:11;;;;;;;6.00;1.73;;;;;;;;;;5112660;27;20599;-77
2022/08/03 10:53:39;;;;;;;2.05;1.95;;;;;;;;;;5113945;27;20659;-74
2022/08/03 10:59:45;;;;;;;3.80;2.10;;;;;;;26.40;61.44;66998.81;5130423;27;20223;-77
2022/08/03 11:02:13;;;;;;;2.22;1.92;;;;;;;;;;5115187;28;20245;-77
2022/08/03 11:04:40;;;;;;;1.70;1.38;;;;;;;26.65;60.12;67028.44;5128502;28;20216;-77
2022/08/03 11:07:24;;;;;;;2.65;2.05;;;;;;;26.60;59.75;67028.72;5132101;28;20245;-77
2022/08/03 11:09:52;;;;;;;2.60;1.30;;;;;;;;;;5113729;28;20723;-76
2022/08/03 11:12:26;;;;;;;6.45;1.98;;;;;;;26.83;60.23;67054.00;5113388;28;20201;-76
2022/08/03 11:15:01;;;;;;;1.73;1.48;;;;;;;;;;5093544;28;20573;-77
2022/08/03 11:17:27;;;;;;;4.07;1.73;;;;;;;;;;5112216;28;20584;-76
2022/08/03 11:19:54;;;;;;;1.50;1.50;;;;;;;;;;5113645;28;20204;-77
2022/08/03 11:22:23;;;;;;;1.83;1.83;;;;;;;;;;5113461;28;20212;-77
2022/08/03 11:24:56;;;;;;;2.90;1.42;;;;;;;27.08;58.40;67076.22;5113920;28;20205;-76
2022/08/03 11:27:24;;;;;;;1.67;1.55;;;;;;;;;;5112461;28;20208;-77
2022/08/03 11:30:05;;;;;;;1.25;1.17;;;;;;;27.12;57.57;67086.59;5113528;28;20268;-77
2022/08/03 11:32:41;;;;;;;3.60;1.20;;;;;;;27.13;57.67;67087.72;5112622;28;20197;-77
2022/08/03 11:35:21;;;;;;;2.85;1.65;;;;;;;;;;5096518;28;20201;-77
2022/08/03 11:37:57;;;;;;;7.47;2.00;;;;;;;27.25;56.00;67094.78;5113240;28;20189;-76
2022/08/03 11:40:34;;;;;;;4.40;1.00;;;;;;;;;;5108975;28;20196;-75
2022/08/03 11:43:02;;;;;;;2.50;1.13;;;;;;;27.21;57.24;67090.81;5118050;28;20706;-77
2022/08/03 11:45:30;;;;;;;2.58;1.40;;;;;;;;;;5126861;28;20200;-75
2022/08/03 11:47:57;;;;;;;1.65;1.20;;;;;;;;;;5110965;28;20186;-76
2022/08/03 11:50:24;;;;;;;1.63;1.30;;;;;;;27.38;55.93;67114.72;5108619;28;20192;-77
2022/08/03 11:52:50;;;;;;;5.07;0.95;;;;;;;;;;5114271;28;20181;-76
2022/08/03 11:55:20;;;;;;;1.42;1.33;;;;;;;27.39;55.86;67116.41;5123462;28;20209;-77
2022/08/03 11:57:47;;;;;;;2.72;1.20;;;;;;;27.56;55.19;67137.63;5130739;28;20200;-76
2022/08/03 12:00:33;;;;;;;4.57;1.73;;;;;;;27.49;56.49;67129.19;5131525;27;20212;-77
2022/08/03 12:03:04;;;;;;;1.98;1.23;;;;;;;;;;5135323;27;20654;-76
2022/08/03 12:05:40;;;;;;;4.03;1.23;;;;;;;;;;5133115;27;20686;-77
2022/08/03 12:08:08;;;;;;;5.32;1.13;;;;;;;27.52;56.45;67130.47;5119307;27;20647;-76
2022/08/03 12:10:34;;;;;;;1.73;1.17;;;;;;;;;;5117694;27;20204;-76
2022/08/03 12:13:05;;;;;;;3.45;1.25;;;;;;;27.46;55.77;67126.38;5117441;27;20565;-77
2022/08/03 12:15:57;;;;;;;3.90;1.00;;;;;;;;;;5137459;27;20766;-77
2022/08/03 12:18:24;;;;;;;1.08;1.08;;;;;;;27.63;56.47;67145.50;5128855;27;20192;-76
2022/08/03 12:20:51;;;;;;;1.70;1.60;;;;;;;;;;5124424;27;20177;-77
2022/08/03 12:23:18;;;;;;;4.90;1.30;;;;;;;;;;5122838;27;20184;-77
2022/08/03 12:25:46;;;;;;;2.58;1.10;;;;;;;27.80;53.87;67160.84;5135256;27;20208;-77
2022/08/03 12:28:18;;;;;;;1.20;1.20;;;;;;;27.82;54.84;67158.31;5119751;27;20280;-77
2022/08/03 12:31:05;;;;;;;1.33;1.00;;;;;;;;;;5131326;27;20292;-77
2022/08/03 12:33:51;;;;;;;1.40;1.40;;;;;;;27.80;54.64;67160.84;5137100;27;20241;-77
2022/08/03 12:36:18;;;;;;;1.48;1.15;;;;;;;27.87;55.33;67163.94;5135085;27;20630;-78
2022/08/03 12:38:54;;;;;;;1.88;1.13;;;;;;;27.94;54.87;67171.25;5122835;27;20196;-78
2022/08/03 12:41:26;;;;;;;1.10;1.10;;;;;;;;;;5115463;27;20184;-76
2022/08/03 12:43:53;;;;;;;1.15;0.95;;;;;;;27.78;54.96;67159.16;5116334;27;20184;-77
2022/08/03 12:46:20;;;;;;;1.33;1.33;;;;;;;27.94;54.83;67179.25;5137207;27;20200;-77
2022/08/03 12:49:03;;;;;;;1.52;1.52;;;;;;;28.17;54.71;67201.91;5137202;27;20189;-76
2022/08/03 12:51:30;;;;;;;3.83;1.50;;;;;;;;;;5118460;27;20241;-76
2022/08/03 12:53:58;;;;;;;6.50;1.27;;;;;;;;;;5121315;27;20212;-77
2022/08/03 12:56:25;;;;;;;1.50;1.50;;;;;;;28.20;54.37;67199.94;5125428;27;20204;-76